Time;durP1;ratioP1;P1;durP2;ratioP2;P2;SDS_P1;SDS_P2;PMS_P1;PMS_P2;Temp;Humidity;BMP_temperature;BMP_pressure;BME280_temperature;BME280_humidity;BME280_pressure;Samples;Min_cycle;Max_cycle;Signal;HPM_P1;HPM_P2
2023/01/31 00:01:21;;;;;;;0.50;0.50;;;2.80;99.90;4.10;96723.00;;;;5032257;28;20487;-68
2023/01/31 00:04:11;;;;;;;0.87;0.67;;;2.80;99.90;4.10;96733.00;;;;5030940;28;20423;-67
2023/01/31 00:07:00;;;;;;;0.70;0.70;;;2.90;99.90;4.10;96725.00;;;;5031343;28;20451;-67
2023/01/31 00:09:49;;;;;;;0.93;0.60;;;2.90;99.90;4.10;96740.00;;;;5029978;28;20470;-67
2023/01/31 00:12:38;;;;;;;0.50;0.50;;;2.90;99.90;4.00;96728.00;;;;5031823;28;20502;-68
2023/01/31 00:15:26;;;;;;;0.50;0.50;;;2.90;99.90;4.10;96721.00;;;;5030465;28;20424;-68
2023/01/31 00:18:16;;;;;;;0.50;0.50;;;3.00;99.90;4.10;96727.00;;;;5030310;28;20479;-67
2023/01/31 00:21:08;;;;;;;2.50;0.50;;;2.90;99.90;4.00;96730.00;;;;5031284;28;20252;-65
2023/01/31 00:23:58;;;;;;;0.33;0.33;;;2.90;99.90;4.10;96741.00;;;;5030341;28;20436;-67
2023/01/31 00:26:55;;;;;;;1.70;0.60;;;3.10;99.90;4.10;96746.00;;;;5030966;28;20711;-66
2023/01/31 00:29:44;;;;;;;0.40;0.40;;;2.90;99.90;4.20;96754.00;;;;5030278;28;20800;-67
2023/01/31 00:32:32;;;;;;;0.73;0.50;;;2.90;99.90;4.20;96771.00;;;;5029901;28;21022;-68
2023/01/31 00:35:23;;;;;;;0.30;0.30;;;2.90;99.90;4.20;96777.00;;;;5030433;28;20451;-66
2023/01/31 00:38:12;;;;;;;0.40;0.40;;;3.00;99.90;4.10;96766.00;;;;5029618;28;21030;-66
2023/01/31 00:41:02;;;;;;;0.67;0.67;;;3.00;99.90;4.20;96789.00;;;;5021153;28;20202;-67
2023/01/31 00:43:52;;;;;;;0.87;0.57;;;2.10;99.90;4.20;96787.00;;;;5011926;28;20418;-67
2023/01/31 00:46:40;;;;;;;0.57;0.40;;;3.10;99.90;4.20;96794.00;;;;5027518;28;20524;-67
2023/01/31 00:49:29;;;;;;;1.23;0.73;;;3.10;99.90;4.10;96788.00;;;;5030697;28;20425;-67
2023/01/31 00:52:19;;;;;;;0.50;0.50;;;3.00;99.90;4.10;96801.00;;;;5030135;28;20210;-66
2023/01/31 00:55:09;;;;;;;0.73;0.70;;;3.00;99.90;4.10;96802.00;;;;5029431;28;20796;-67
2023/01/31 00:57:58;;;;;;;0.70;0.50;;;3.00;99.90;4.00;96801.00;;;;5029641;28;21023;-67
2023/01/31 01:00:47;;;;;;;0.40;0.40;;;2.90;99.90;4.10;96813.00;;;;5030175;28;21258;-67
2023/01/31 01:03:39;;;;;;;0.77;0.60;;;2.90;99.90;4.00;96819.00;;;;5029300;28;20962;-66
2023/01/31 01:06:29;;;;;;;0.40;0.40;;;2.80;99.90;4.00;96806.00;;;;5030653;28;20428;-67
2023/01/31 01:09:19;;;;;;;0.30;0.30;;;3.00;99.90;4.00;96800.00;;;;5029274;28;20433;-67
2023/01/31 01:12:07;;;;;;;0.73;0.40;;;2.90;99.90;4.00;96793.00;;;;5030503;28;20432;-67
2023/01/31 01:14:56;;;;;;;0.40;0.40;;;2.90;99.90;3.90;96796.00;;;;5029888;28;20208;-66
2023/01/31 01:17:45;;;;;;;0.60;0.60;;;2.90;99.90;3.90;96798.00;;;;5029120;28;20303;-66
2023/01/31 01:20:35;;;;;;;0.57;0.50;;;2.80;99.90;3.90;96809.00;;;;5029514;28;20440;-67
2023/01/31 01:23:24;;;;;;;1.30;0.70;;;2.80;99.90;3.90;96811.00;;;;5029672;28;20494;-67
2023/01/31 01:26:20;;;;;;;0.60;0.57;;;3.00;99.90;3.90;96819.00;;;;5018758;28;20209;-66
2023/01/31 01:29:09;;;;;;;0.37;0.37;;;;;3.90;96829.00;;;;5028889;28;20205;-67
2023/01/31 01:31:58;;;;;;;1.20;0.60;;;2.70;99.90;3.80;96826.00;;;;5029748;28;20444;-66
2023/01/31 01:34:46;;;;;;;0.47;0.47;;;2.60;99.90;3.80;96833.00;;;;5028482;28;20436;-67
2023/01/31 01:37:35;;;;;;;1.63;0.67;;;2.70;99.90;3.80;96811.00;;;;5028818;28;20452;-67
2023/01/31 01:40:24;;;;;;;0.50;0.50;;;2.70;99.90;3.80;96817.00;;;;5029003;28;20447;-67
2023/01/31 01:43:14;;;;;;;0.40;0.40;;;2.60;99.90;3.70;96817.00;;;;5028035;28;20701;-66
2023/01/31 01:46:03;;;;;;;0.40;0.40;;;2.60;99.90;3.70;96810.00;;;;5025831;28;20460;-67
2023/01/31 01:48:59;;;;;;;0.30;0.30;;;2.50;99.90;3.60;96811.00;;;;5027390;28;20425;-66
2023/01/31 01:51:50;;;;;;;1.77;0.70;;;2.60;99.90;3.60;96803.00;;;;5029161;28;20444;-67
2023/01/31 01:54:46;;;;;;;0.73;0.50;;;2.50;99.90;3.30;96815.00;;;;5028402;28;20459;-67
2023/01/31 01:57:40;;;;;;;4.27;0.87;;;2.40;99.90;3.20;96814.00;;;;5028159;28;20942;-67
2023/01/31 02:00:31;;;;;;;1.70;0.40;;;2.30;99.90;3.20;96807.00;;;;5029186;28;20915;-67
2023/01/31 02:03:21;;;;;;;1.00;0.50;;;2.50;99.90;3.40;96807.00;;;;5016205;28;20425;-67
2023/01/31 02:06:09;;;;;;;0.40;0.40;;;2.30;99.90;3.10;96813.00;;;;5029214;28;20442;-67
2023/01/31 02:08:59;;;;;;;0.40;0.40;;;2.30;99.90;3.10;96808.00;;;;5028641;28;20861;-66
2023/01/31 02:11:48;;;;;;;0.40;0.40;;;2.30;99.90;3.10;96807.00;;;;5018570;28;20797;-67
2023/01/31 02:14:37;;;;;;;0.37;0.37;;;2.20;99.90;3.30;96812.00;;;;5027992;28;20429;-66
2023/01/31 02:17:27;;;;;;;0.50;0.50;;;2.20;99.90;3.20;96825.00;;;;5028177;28;20449;-66
2023/01/31 02:21:13;;;;;;;0.40;0.40;;;2.20;99.90;3.40;96824.00;;;;5028999;28;20513;-67
2023/01/31 02:25:04;;;;;;;0.50;0.50;;;2.30;99.90;3.30;96816.00;;;;5024407;28;20452;-66
2023/01/31 02:28:52;;;;;;;0.70;0.30;;;2.30;99.90;3.30;96820.00;;;;4987009;28;20449;-67
2023/01/31 02:32:35;;;;;;;0.30;0.30;;;2.30;99.90;3.40;96813.00;;;;5027444;28;20486;-67
2023/01/31 02:35:42;;;;;;;0.30;0.30;;;2.30;99.90;3.50;96835.00;;;;5028370;28;20446;-69
2023/01/31 02:38:44;;;;;;;0.30;0.30;;;2.40;99.90;3.60;96831.00;;;;5027140;28;20448;-68
2023/01/31 02:41:39;;;;;;;0.40;0.37;;;2.50;99.90;3.80;96848.00;;;;5027999;28;20867;-69
2023/01/31 02:48:03;;;;;;;1.23;0.57;;;2.50;99.90;3.70;96826.00;;;;5020379;28;20988;-69
2023/01/31 02:51:01;;;;;;;0.40;0.40;;;2.50;99.90;3.60;96828.00;;;;5027647;28;20429;-66
2023/01/31 02:53:55;;;;;;;2.17;0.40;;;2.50;99.90;3.60;96817.00;;;;5027696;28;20424;-69
2023/01/31 02:56:45;;;;;;;0.30;0.30;;;2.50;99.90;3.50;96828.00;;;;5029203;28;20935;-68
2023/01/31 02:59:34;;;;;;;0.70;0.70;;;2.40;99.90;3.30;96811.00;;;;5028612;28;20898;-68
2023/01/31 03:02:25;;;;;;;0.80;0.57;;;2.40;99.90;3.20;96826.00;;;;5028801;28;20870;-68
2023/01/31 03:05:18;;;;;;;0.37;0.37;;;2.40;99.90;3.30;96814.00;;;;5028808;28;20428;-68
2023/01/31 03:08:07;;;;;;;0.50;0.43;;;2.30;99.90;3.30;96819.00;;;;5027647;28;20452;-68
2023/01/31 03:11:03;;;;;;;0.50;0.50;;;2.20;99.90;3.30;96815.00;;;;5027325;28;20490;-68
2023/01/31 03:14:03;;;;;;;1.37;0.47;;;2.30;99.90;3.20;96829.00;;;;5021418;28;20486;-68
2023/01/31 03:20:11;;;;;;;0.63;0.60;;;2.20;99.90;2.90;96836.00;;;;5028112;28;20871;-68
2023/01/31 03:23:07;;;;;;;0.40;0.40;;;2.40;99.90;2.80;96848.00;;;;5028605;28;20463;-67
2023/01/31 03:25:58;;;;;;;0.40;0.40;;;2.20;99.90;2.50;96838.00;;;;5027263;28;20424;-67
2023/01/31 03:28:53;;;;;;;0.60;0.60;;;2.10;99.90;2.60;96838.00;;;;5027931;28;20948;-67
2023/01/31 03:31:48;;;;;;;0.70;0.70;;;1.90;99.90;2.90;96848.00;;;;5027937;28;20921;-68
2023/01/31 03:34:38;;;;;;;2.73;0.60;;;1.90;99.90;3.00;96844.00;;;;5027434;28;20530;-68
2023/01/31 03:37:37;;;;;;;0.73;0.50;;;2.10;99.90;3.00;96847.00;;;;5014924;28;21165;-69
2023/01/31 03:40:33;;;;;;;0.70;0.63;;;2.00;99.90;2.90;96835.00;;;;5027556;28;20998;-68
2023/01/31 03:43:31;;;;;;;0.67;0.53;;;2.00;99.90;3.00;96847.00;;;;5025981;28;20440;-68
2023/01/31 03:46:25;;;;;;;0.40;0.40;;;1.90;99.90;2.90;96829.00;;;;5025572;28;20428;-68
2023/01/31 03:49:16;;;;;;;0.63;0.50;;;2.00;99.90;2.90;96841.00;;;;5017981;28;20509;-68
2023/01/31 03:52:08;;;;;;;0.40;0.40;;;1.80;99.90;3.00;96839.00;;;;5029791;28;20416;-69
2023/01/31 03:55:02;;;;;;;0.60;0.50;;;1.90;99.90;2.90;96836.00;;;;5032013;28;20486;-68
2023/01/31 03:57:55;;;;;;;2.37;0.90;;;1.80;99.90;2.80;96824.00;;;;5031991;28;20447;-69
2023/01/31 04:00:46;;;;;;;0.40;0.40;;;1.80;99.90;2.60;96830.00;;;;5031314;28;20475;-68
2023/01/31 04:03:40;;;;;;;0.83;0.83;;;1.80;99.90;2.80;96837.00;;;;5032070;28;20431;-69
2023/01/31 04:06:29;;;;;;;0.63;0.63;;;;;2.80;96842.00;;;;5030598;28;20526;-68
2023/01/31 04:09:18;;;;;;;0.57;0.57;;;;;2.80;96841.00;;;;5030950;28;20432;-69
2023/01/31 04:12:13;;;;;;;0.63;0.50;;;1.80;99.90;2.80;96849.00;;;;5030641;28;20450;-68
2023/01/31 04:15:03;;;;;;;0.80;0.80;;;1.80;99.90;2.90;96853.00;;;;5022100;28;20955;-68
2023/01/31 04:17:52;;;;;;;0.40;0.40;;;;;2.90;96860.00;;;;5030808;28;20456;-69
2023/01/31 04:20:41;;;;;;;0.50;0.43;;;1.80;99.90;2.90;96853.00;;;;5030904;28;20468;-69
2023/01/31 04:23:30;;;;;;;0.50;0.50;;;1.80;99.90;2.50;96864.00;;;;5030597;28;20452;-69
2023/01/31 04:26:19;;;;;;;1.53;0.60;;;;;2.50;96867.00;;;;5030710;28;20428;-69
2023/01/31 04:29:08;;;;;;;0.50;0.50;;;;;2.40;96845.00;;;;5030912;28;20424;-69
2023/01/31 04:31:58;;;;;;;0.70;0.70;;;1.60;99.90;2.70;96854.00;;;;5029777;28;20432;-68
2023/01/31 04:34:47;;;;;;;0.60;0.60;;;1.60;99.90;2.70;96857.00;;;;5030606;28;20444;-68
2023/01/31 04:37:35;;;;;;;1.60;0.93;;;1.60;99.90;2.70;96858.00;;;;5031808;28;20440;-69
2023/01/31 04:40:24;;;;;;;0.93;0.70;;;1.70;99.90;2.40;96871.00;;;;5030674;28;20605;-69
2023/01/31 04:43:13;;;;;;;0.60;0.60;;;;;2.00;96872.00;;;;5030220;28;20424;-69
2023/01/31 04:46:02;;;;;;;0.50;0.50;;;;;2.20;96871.00;;;;5018029;28;20433;-69
2023/01/31 04:48:52;;;;;;;0.67;0.53;;;1.40;99.90;2.40;96871.00;;;;5017897;28;20502;-69
2023/01/31 04:51:41;;;;;;;3.63;0.80;;;1.80;99.90;2.30;96869.00;;;;5030016;28;20803;-69
2023/01/31 04:54:30;;;;;;;0.50;0.50;;;1.50;99.90;2.40;96866.00;;;;5031435;28;21173;-69
2023/01/31 04:57:19;;;;;;;0.50;0.50;;;1.40;99.90;2.10;96857.00;;;;5030121;28;20481;-69
2023/01/31 05:00:10;;;;;;;24.87;10.13;;;1.40;99.90;1.80;96862.00;;;;5029985;28;20854;-69
2023/01/31 05:02:59;;;;;;;8.73;3.67;;;;;2.30;96871.00;;;;5028004;28;20432;-69
2023/01/31 05:05:50;;;;;;;2.73;1.30;;;1.30;99.90;2.50;96897.00;;;;5030253;28;20944;-69
2023/01/31 05:08:39;;;;;;;10.53;4.43;;;1.20;99.90;2.40;96883.00;;;;5020045;28;20966;-69
2023/01/31 05:11:28;;;;;;;6.93;3.50;;;;;2.60;96874.00;;;;5016685;28;20510;-69
2023/01/31 05:14:19;;;;;;;3.20;1.70;;;1.40;99.90;2.40;96868.00;;;;5022273;28;20437;-69
2023/01/31 05:17:08;;;;;;;4.70;1.53;;;1.50;99.90;2.30;96873.00;;;;5019320;28;20437;-69
2023/01/31 05:19:57;;;;;;;1.67;1.57;;;1.60;99.90;2.40;96882.00;;;;5016706;28;20598;-69
2023/01/31 05:22:49;;;;;;;0.77;0.60;;;1.40;99.90;2.00;96871.00;;;;5025310;28;20420;-69
2023/01/31 05:25:38;;;;;;;1.50;0.80;;;1.30;99.90;1.80;96871.00;;;;5029043;28;20423;-69
2023/01/31 05:28:27;;;;;;;4.33;0.73;;;1.30;99.90;2.10;96869.00;;;;5021983;28;20800;-69
2023/01/31 05:31:16;;;;;;;0.50;0.50;;;1.30;99.90;2.10;96859.00;;;;5019844;28;20436;-69
2023/01/31 05:34:04;;;;;;;3.23;0.70;;;1.20;99.90;2.20;96870.00;;;;5025920;28;20426;-69
2023/01/31 05:36:53;;;;;;;2.10;0.80;;;1.40;99.90;2.30;96871.00;;;;5020015;28;21121;-70
2023/01/31 05:39:43;;;;;;;0.50;0.50;;;1.20;99.90;2.20;96884.00;;;;5019884;28;20921;-68
2023/01/31 05:42:32;;;;;;;1.23;0.60;;;1.30;99.90;2.40;96866.00;;;;5025244;28;20421;-68
2023/01/31 05:45:22;;;;;;;0.30;0.30;;;1.40;99.90;2.60;96877.00;;;;5021507;28;20463;-68
2023/01/31 05:48:11;;;;;;;0.40;0.40;;;1.40;99.90;2.40;96856.00;;;;5022383;28;20448;-68
2023/01/31 05:50:59;;;;;;;0.83;0.50;;;1.50;99.90;2.20;96860.00;;;;5022469;28;20433;-69
2023/01/31 05:53:48;;;;;;;0.60;0.60;;;1.50;99.90;2.50;96874.00;;;;5016196;28;20998;-69
2023/01/31 05:56:39;;;;;;;0.60;0.57;;;1.60;99.90;2.30;96852.00;;;;5027199;28;20490;-69
2023/01/31 05:59:30;;;;;;;1.73;1.63;;;1.50;99.90;2.00;96858.00;;;;5021793;28;20432;-69
2023/01/31 06:02:18;;;;;;;0.80;0.80;;;1.50;99.90;2.20;96863.00;;;;5022114;28;20447;-68
2023/01/31 06:05:08;;;;;;;0.60;0.60;;;1.50;99.90;2.40;96874.00;;;;5025117;28;20514;-68
2023/01/31 06:07:57;;;;;;;1.37;1.27;;;1.50;99.90;2.30;96871.00;;;;5021861;28;20470;-69
2023/01/31 06:10:45;;;;;;;0.50;0.50;;;1.50;99.90;2.60;96877.00;;;;5023309;28;20488;-69
2023/01/31 06:13:35;;;;;;;1.00;0.63;;;1.50;99.90;2.40;96870.00;;;;5018353;28;20448;-69
2023/01/31 06:16:24;;;;;;;0.60;0.60;;;1.50;99.90;2.40;96871.00;;;;5021223;28;20841;-71
2023/01/31 06:19:13;;;;;;;1.43;0.60;;;1.70;99.90;2.50;96854.00;;;;5027704;28;20417;-69
2023/01/31 06:22:02;;;;;;;0.40;0.40;;;1.50;99.90;2.50;96847.00;;;;5021934;28;20472;-69
2023/01/31 06:24:51;;;;;;;0.50;0.50;;;1.60;99.90;2.50;96851.00;;;;5021631;28;21175;-69
2023/01/31 06:27:39;;;;;;;0.97;0.97;;;1.50;99.90;2.40;96861.00;;;;5022177;28;20595;-68
2023/01/31 06:30:29;;;;;;;0.93;0.77;;;1.50;99.90;2.50;96855.00;;;;5019939;28;20436;-69
2023/01/31 06:33:18;;;;;;;5.83;1.40;;;1.60;99.90;2.30;96862.00;;;;5016407;28;20951;-69
2023/01/31 06:36:08;;;;;;;1.50;1.40;;;1.70;99.90;2.20;96852.00;;;;5014815;28;20505;-69
2023/01/31 06:38:57;;;;;;;0.40;0.40;;;1.50;99.90;1.50;96846.00;;;;5019137;28;20449;-70
2023/01/31 06:41:46;;;;;;;0.40;0.40;;;1.40;99.90;2.00;96849.00;;;;5020502;28;20506;-69
2023/01/31 06:44:36;;;;;;;0.67;0.67;;;1.30;99.90;2.20;96849.00;;;;5018888;28;20432;-69
2023/01/31 06:47:26;;;;;;;0.80;0.77;;;1.40;99.90;2.10;96837.00;;;;5019819;28;21002;-71
2023/01/31 06:50:15;;;;;;;0.63;0.63;;;1.30;99.90;2.60;96868.00;;;;5023407;28;20854;-66
2023/01/31 06:53:04;;;;;;;1.07;0.77;;;1.40;99.90;3.10;96868.00;;;;5016461;28;20436;-69
2023/01/31 06:55:53;;;;;;;0.70;0.70;;;1.60;99.90;3.10;96879.00;;;;5023768;28;20456;-68
2023/01/31 06:58:41;;;;;;;1.73;0.50;;;1.80;99.90;3.10;96868.00;;;;5018464;28;20453;-69
2023/01/31 07:01:30;;;;;;;0.57;0.57;;;1.90;99.90;2.90;96869.00;;;;5018252;28;20513;-69
2023/01/31 07:04:20;;;;;;;0.50;0.50;;;1.80;99.90;3.00;96877.00;;;;5017888;28;20429;-71
2023/01/31 07:07:09;;;;;;;1.50;0.90;;;1.90;99.90;2.30;96862.00;;;;5014118;28;20468;-70
2023/01/31 07:09:58;;;;;;;1.13;0.83;;;1.80;99.90;2.30;96871.00;;;;5017766;28;21215;-72
2023/01/31 07:12:47;;;;;;;1.77;0.70;;;1.70;99.90;2.80;96878.00;;;;5019310;28;20443;-71
2023/01/31 07:15:36;;;;;;;1.00;0.90;;;;;3.10;96889.00;;;;5023412;28;20479;-72
2023/01/31 07:18:24;;;;;;;0.50;0.50;;;1.80;99.90;3.10;96874.00;;;;5017509;28;20518;-72
2023/01/31 07:21:15;;;;;;;1.30;1.10;;;1.90;99.90;3.30;96899.00;;;;5023805;28;20874;-72
2023/01/31 07:24:04;;;;;;;1.77;1.30;;;2.00;99.90;3.60;96898.00;;;;5017590;28;20432;-72
2023/01/31 07:26:53;;;;;;;1.23;1.13;;;2.20;99.90;3.80;96905.00;;;;5022661;28;20983;-72
2023/01/31 07:29:43;;;;;;;1.33;0.97;;;2.30;99.90;3.20;96902.00;;;;5023529;28;20443;-71
2023/01/31 07:32:33;;;;;;;1.10;1.00;;;2.30;99.90;3.30;96903.00;;;;5021061;28;20475;-70
2023/01/31 07:35:22;;;;;;;1.37;1.27;;;2.40;99.90;3.60;96919.00;;;;5024607;28;20448;-71
2023/01/31 07:38:12;;;;;;;1.47;0.70;;;2.40;99.90;4.00;96933.00;;;;5019298;28;21026;-71
2023/01/31 07:41:02;;;;;;;3.77;1.07;;;2.60;99.90;4.10;96939.00;;;;5019464;28;20921;-70
2023/01/31 07:43:51;;;;;;;1.30;1.30;;;2.70;99.90;3.50;96925.00;;;;5019406;28;20436;-72
2023/01/31 07:46:41;;;;;;;1.83;1.40;;;2.80;99.90;3.50;96919.00;;;;5027904;28;20866;-71
2023/01/31 07:49:29;;;;;;;0.70;0.70;;;2.90;99.90;4.00;96935.00;;;;5027069;28;20425;-69
2023/01/31 07:52:18;;;;;;;1.30;1.20;;;2.80;99.90;4.60;96923.00;;;;5021539;28;20435;-69
2023/01/31 07:55:09;;;;;;;1.20;1.10;;;3.00;99.90;4.70;96930.00;;;;5026221;28;20734;-69
2023/01/31 07:57:58;;;;;;;1.10;1.10;;;3.20;99.90;4.60;96938.00;;;;5023423;28;20221;-70
2023/01/31 08:03:53;;;;;;;0.97;0.77;;;3.50;99.90;4.30;96923.00;;;;5021761;28;20208;-69
2023/01/31 08:06:44;;;;;;;3.23;1.10;;;3.50;99.90;4.00;96918.00;;;;5021588;28;20228;-68
2023/01/31 08:09:33;;;;;;;2.57;1.70;;;3.50;99.90;4.80;96945.00;;;;5024071;28;20220;-70
2023/01/31 08:12:23;;;;;;;1.63;1.00;;;3.50;99.90;5.10;96931.00;;;;5025939;28;20247;-69
2023/01/31 08:15:12;;;;;;;0.60;0.60;;;3.60;99.90;5.50;96950.00;;;;5023905;28;20205;-69
2023/01/31 08:18:01;;;;;;;0.90;0.90;;;3.80;99.90;5.40;96940.00;;;;5024475;28;20209;-70
2023/01/31 08:20:54;;;;;;;6.87;0.97;;;3.90;99.90;5.50;96950.00;;;;5023547;28;20299;-71
2023/01/31 08:23:43;;;;;;;2.03;0.53;;;4.10;99.90;5.60;96956.00;;;;5023264;28;20202;-68
2023/01/31 08:26:32;;;;;;;0.63;0.60;;;4.50;99.90;5.60;96952.00;;;;5025111;28;20198;-68
2023/01/31 08:29:23;;;;;;;0.57;0.57;;;4.50;99.90;6.10;96955.00;;;;5025501;28;20673;-70
2023/01/31 08:32:12;;;;;;;0.87;0.60;;;4.70;99.90;6.40;96982.00;;;;5018141;28;20295;-68
2023/01/31 08:35:00;;;;;;;1.03;0.50;;;4.90;99.90;6.20;96971.00;;;;5031070;28;20209;-71
2023/01/31 08:37:49;;;;;;;2.03;0.87;;;5.00;99.90;6.60;96988.00;;;;5029227;28;20747;-70
2023/01/31 08:40:38;;;;;;;0.80;0.53;;;5.20;99.90;7.00;96982.00;;;;5031058;28;20205;-70
2023/01/31 08:43:26;;;;;;;0.93;0.80;;;5.30;99.90;6.90;96996.00;;;;5023138;28;20394;-69
2023/01/31 08:46:17;;;;;;;1.90;1.73;;;5.40;99.90;7.00;96998.00;;;;5023218;28;20209;-70
2023/01/31 08:49:07;;;;;;;1.10;0.70;;;5.50;99.90;7.10;97003.00;;;;5018991;28;20213;-70
2023/01/31 08:51:56;;;;;;;0.53;0.53;;;5.60;98.80;7.20;97005.00;;;;5015734;28;20217;-69
2023/01/31 08:54:45;;;;;;;1.90;0.97;;;5.70;98.30;7.50;97017.00;;;;5022346;28;20271;-69
2023/01/31 08:57:33;;;;;;;0.50;0.50;;;5.80;98.20;7.60;97018.00;;;;5019897;28;20225;-69
2023/01/31 09:00:22;;;;;;;1.73;0.70;;;5.90;97.70;7.20;97030.00;;;;5024441;28;20724;-68
2023/01/31 09:03:16;;;;;;;0.67;0.67;;;6.10;95.50;6.40;97008.00;;;;5026743;28;20213;-68
2023/01/31 09:06:08;;;;;;;0.73;0.53;;;5.90;94.50;7.40;97019.00;;;;5019337;28;20205;-68
2023/01/31 09:08:58;;;;;;;0.53;0.53;;;6.00;94.90;7.90;97019.00;;;;5021008;28;20202;-68
2023/01/31 09:11:47;;;;;;;0.67;0.60;;;6.20;95.70;7.50;97020.00;;;;5024209;28;20297;-67
2023/01/31 09:14:35;;;;;;;0.73;0.73;;;6.20;95.50;7.50;97023.00;;;;5025376;28;20676;-69
2023/01/31 09:17:24;;;;;;;0.57;0.50;;;6.30;93.70;7.50;97034.00;;;;5018648;28;20246;-71
2023/01/31 09:20:14;;;;;;;2.37;0.60;;;6.40;93.10;7.90;97048.00;;;;5025966;28;20205;-69
2023/01/31 09:23:03;;;;;;;0.30;0.30;;;6.40;93.40;8.20;97040.00;;;;5019015;28;21613;-68
2023/01/31 09:25:53;;;;;;;0.70;0.70;;;6.60;93.20;8.00;97039.00;;;;5030102;28;20233;-68
2023/01/31 09:28:43;;;;;;;3.90;0.60;;;6.60;92.50;7.40;97038.00;;;;5022849;28;20259;-68
2023/01/31 09:31:32;;;;;;;1.97;0.67;;;6.60;91.30;7.20;97037.00;;;;5004775;28;20236;-71
2023/01/31 09:34:21;;;;;;;0.97;0.40;;;6.50;91.90;6.50;97033.00;;;;5021975;28;20228;-71
2023/01/31 09:37:11;;;;;;;0.93;0.70;;;6.30;91.00;7.10;97032.00;;;;5022672;28;20232;-68
2023/01/31 09:40:00;;;;;;;0.40;0.40;;;6.30;91.70;6.80;97026.00;;;;5019540;28;20684;-70
2023/01/31 09:42:51;;;;;;;0.50;0.50;;;6.30;91.10;6.50;97024.00;;;;5023125;28;20244;-70
2023/01/31 09:45:43;;;;;;;1.33;0.70;;;6.30;92.00;6.70;97004.00;;;;5024270;28;20668;-66
2023/01/31 09:48:37;;;;;;;1.97;0.97;;;6.20;91.40;6.90;97024.00;;;;5018636;28;20269;-68
2023/01/31 09:51:26;;;;;;;1.73;0.73;;;6.30;91.20;7.00;97019.00;;;;5021629;28;20248;-67
2023/01/31 09:54:22;;;;;;;0.57;0.43;;;6.30;90.80;6.70;97025.00;;;;5024724;28;20201;-70
2023/01/31 09:57:24;;;;;;;0.53;0.47;;;6.20;87.60;8.10;97032.00;;;;5020559;28;20218;-67
2023/01/31 10:00:24;;;;;;;0.60;0.60;;;6.40;88.70;7.80;97023.00;;;;5020392;28;20197;-68
2023/01/31 10:03:40;;;;;;;0.60;0.60;;;6.60;88.20;7.60;97036.00;;;;5019989;28;20605;-69
2023/01/31 10:06:36;;;;;;;0.73;0.60;;;6.60;87.10;8.20;97032.00;;;;5023907;28;20209;-71
2023/01/31 10:09:34;;;;;;;0.70;0.70;;;6.70;85.50;7.60;97040.00;;;;5024370;28;20209;-71
2023/01/31 10:12:28;;;;;;;0.97;0.80;;;6.70;87.00;8.20;97050.00;;;;5019542;28;20206;-68
2023/01/31 10:15:26;;;;;;;0.90;0.90;;;6.80;85.70;7.10;97042.00;;;;5023095;28;20248;-68
2023/01/31 10:18:23;;;;;;;2.63;0.73;;;6.70;85.10;7.70;97048.00;;;;5023078;28;20723;-67
2023/01/31 10:21:16;;;;;;;1.80;0.50;;;6.60;83.60;6.70;97023.00;;;;5020095;28;20233;-68
2023/01/31 10:24:15;;;;;;;0.50;0.50;;;6.50;84.10;6.70;97036.00;;;;5025582;28;20225;-67
2023/01/31 10:27:13;;;;;;;1.73;0.83;;;6.50;84.40;6.00;97019.00;;;;5028308;28;20221;-65
2023/01/31 10:30:05;;;;;;;0.73;0.63;;;6.20;84.00;7.00;97031.00;;;;5029437;28;20244;-68
2023/01/31 10:33:02;;;;;;;1.43;0.60;;;6.20;84.80;8.00;97029.00;;;;5028851;28;20201;-66
2023/01/31 10:35:55;;;;;;;0.70;0.50;;;6.40;87.20;8.00;97033.00;;;;5027779;28;20680;-66
2023/01/31 10:38:59;;;;;;;0.40;0.37;;;6.70;84.90;7.20;97046.00;;;;5027599;28;20220;-70
2023/01/31 10:42:06;;;;;;;1.23;0.40;;;6.70;82.80;7.10;97011.00;;;;5027076;28;20209;-67
2023/01/31 10:45:01;;;;;;;0.70;0.70;;;6.70;81.60;7.10;97009.00;;;;5022141;28;20576;-69
2023/01/31 10:47:53;;;;;;;2.10;0.80;;;7.00;81.50;7.20;97004.00;;;;5016945;28;20241;-70
2023/01/31 10:50:56;;;;;;;1.27;0.80;;;7.10;80.00;7.90;97003.00;;;;5024745;28;20201;-68
2023/01/31 10:54:04;;;;;;;1.83;0.80;;;7.40;78.30;7.90;97013.00;;;;5016127;28;20212;-71
2023/01/31 10:56:52;;;;;;;0.80;0.60;;;7.60;78.00;10.00;97029.00;;;;5024421;28;20221;-69
2023/01/31 10:59:46;;;;;;;0.50;0.43;;;8.40;78.20;10.30;97013.00;;;;5021235;28;20243;-68
2023/01/31 11:02:35;;;;;;;1.53;0.60;;;9.30;74.80;10.00;97006.00;;;;5018986;28;20336;-68
2023/01/31 11:05:27;;;;;;;0.73;0.60;;;9.90;69.40;11.10;97041.00;;;;5024129;28;20205;-69
2023/01/31 11:08:33;;;;;;;0.57;0.57;;;10.40;68.80;11.70;97012.00;;;;5023263;28;20604;-69
2023/01/31 11:11:25;;;;;;;4.67;0.93;;;10.90;70.70;10.60;97053.00;;;;5020899;28;20197;-69
2023/01/31 11:14:19;;;;;;;1.27;0.43;;;10.90;66.60;9.60;97002.00;;;;5028093;28;20209;-67
2023/01/31 11:17:16;;;;;;;0.40;0.40;;;10.20;63.80;9.40;97000.00;;;;5020514;28;20708;-67
2023/01/31 11:20:06;;;;;;;2.43;0.60;;;9.80;64.60;10.10;96983.00;;;;5025119;28;20255;-69
2023/01/31 11:22:56;;;;;;;2.83;0.53;;;9.60;66.10;10.80;96975.00;;;;5027746;28;20225;-68
2023/01/31 11:25:49;;;;;;;2.77;0.77;;;9.70;68.00;10.80;97015.00;;;;5027254;28;20202;-71
2023/01/31 11:28:40;;;;;;;0.40;0.40;;;10.10;66.40;8.50;97019.00;;;;5022211;28;20708;-66
2023/01/31 11:31:34;;;;;;;0.90;0.63;;;9.50;62.10;9.00;97014.00;;;;5026010;28;20205;-67
2023/01/31 11:34:28;;;;;;;5.30;0.83;;;9.10;64.70;10.20;97009.00;;;;5030165;28;20224;-67
2023/01/31 11:37:18;;;;;;;0.97;0.70;;;9.00;67.20;9.80;97012.00;;;;5031599;28;20233;-71
2023/01/31 11:40:21;;;;;;;1.90;0.70;;;8.90;66.90;8.50;97013.00;;;;5032459;28;20224;-67
2023/01/31 11:43:26;;;;;;;1.83;0.60;;;8.50;65.70;9.70;97010.00;;;;5032861;28;20228;-68
2023/01/31 11:46:14;;;;;;;0.80;0.60;;;8.40;67.00;9.10;97017.00;;;;5032437;28;20585;-69
2023/01/31 11:49:12;;;;;;;0.60;0.60;;;8.30;67.30;8.10;97008.00;;;;5023270;28;20209;-69
2023/01/31 11:52:14;;;;;;;1.90;0.90;;;8.00;66.30;8.00;96992.00;;;;5024495;28;20280;-70
2023/01/31 11:55:07;;;;;;;0.53;0.53;;;7.50;66.80;8.80;96985.00;;;;5030364;28;20227;-69
2023/01/31 11:57:59;;;;;;;0.93;0.70;;;7.50;68.70;8.80;97008.00;;;;5031254;28;20233;-69
2023/01/31 12:00:59;;;;;;;1.47;0.80;;;7.50;69.30;9.20;96969.00;;;;5031262;28;20227;-69
2023/01/31 12:03:51;;;;;;;1.33;0.63;;;7.50;69.60;10.20;96988.00;;;;5026421;28;20221;-69
2023/01/31 12:07:05;;;;;;;0.40;0.40;;;8.00;70.60;10.40;96985.00;;;;5023547;28;20266;-69
2023/01/31 12:09:53;;;;;;;0.97;0.43;;;8.50;67.30;9.00;96970.00;;;;5021943;28;20197;-69
2023/01/31 12:12:43;;;;;;;1.50;0.70;;;8.80;65.20;9.60;96970.00;;;;5023662;28;20201;-69
2023/01/31 12:15:35;;;;;;;0.67;0.37;;;8.90;66.10;10.40;96969.00;;;;5020548;28;20244;-72
2023/01/31 12:18:50;;;;;;;2.00;0.50;;;9.20;65.80;9.60;96975.00;;;;5021036;28;20300;-72
2023/01/31 12:21:54;;;;;;;1.70;0.53;;;9.20;63.10;9.40;96972.00;;;;5024738;28;20735;-69
2023/01/31 12:24:59;;;;;;;0.53;0.40;;;9.10;62.70;9.40;96978.00;;;;5021776;28;20717;-73
2023/01/31 12:28:05;;;;;;;1.27;0.80;;;9.10;63.30;11.90;96987.00;;;;5023251;28;20229;-68
2023/01/31 12:31:14;;;;;;;1.90;0.73;;;9.70;63.40;13.10;96999.00;;;;5020766;28;20442;-68
2023/01/31 12:34:33;;;;;;;1.13;0.77;;;10.40;64.30;11.60;97043.00;;;;5021483;28;20206;-70
2023/01/31 12:37:35;;;;;;;0.73;0.50;;;11.00;59.40;10.70;96971.00;;;;5018929;28;20799;-67
2023/01/31 12:40:38;;;;;;;1.30;0.50;;;10.50;59.70;9.80;97018.00;;;;5022945;28;20366;-68
2023/01/31 12:43:56;;;;;;;1.50;0.63;;;9.90;60.60;9.80;96959.00;;;;5019906;28;20229;-70
2023/01/31 12:47:08;;;;;;;0.33;0.33;;;9.40;60.20;11.90;96975.00;;;;5020728;28;20301;-69
2023/01/31 12:50:13;;;;;;;0.63;0.63;;;9.80;61.80;11.90;96965.00;;;;5024707;28;20852;-67
2023/01/31 12:53:40;;;;;;;2.17;0.70;;;10.30;59.60;13.20;96966.00;;;;5021632;28;20196;-68
2023/01/31 12:56:47;;;;;;;1.00;0.43;;;11.10;58.70;13.50;96961.00;;;;5018642;28;20291;-67
2023/01/31 12:59:53;;;;;;;1.47;0.67;;;11.90;58.00;15.40;96966.00;;;;5021392;28;20196;-68
2023/01/31 13:02:56;;;;;;;1.90;1.23;;;12.60;57.80;12.90;97004.00;;;;5019013;28;20274;-67
2023/01/31 13:05:51;;;;;;;0.77;0.40;;;12.70;54.70;12.90;96990.00;;;;5017163;28;20217;-71
2023/01/31 13:08:42;;;;;;;1.97;1.00;;;12.50;54.50;15.60;96964.00;;;;5019031;28;20411;-69
2023/01/31 13:11:44;;;;;;;0.40;0.40;;;12.80;56.00;13.40;96946.00;;;;5018426;28;20202;-70
2023/01/31 13:14:39;;;;;;;3.23;0.30;;;12.90;54.10;12.50;96950.00;;;;5022769;28;20746;-68
2023/01/31 13:17:29;;;;;;;1.50;0.73;;;12.40;54.30;13.70;96958.00;;;;5022478;28;20226;-68
2023/01/31 13:20:29;;;;;;;1.43;0.60;;;12.50;54.40;14.30;96961.00;;;;5024566;28;20219;-69